Falkner, MS (38629)

8:15 AM CDT on July 26, 2014 (GMT -0500)
Turner (KCRX) Elev 427 ft | 34.91 °N, 88.60 °W | Change Station

Current weather conditions updated 20 minutes ago

Clear
Clear
70 °F
Feels Like 70 °F
N
4
Wind Variable Wind from SSE

Today is forecast to be Much Warmer than yesterday.

Today
High -- | Low -- °F
--% Chance of Precip.
Yesterday
High -- | Low -- °F
Precip. -- in
6:01 AM 8:03 PM
Waning Crescent, 0% visible
Pressure 30.05 in
Visibility 8.0 miles
Clouds Clear
Dew Point 66 °F
Humidity 88%
Rainfall 0.00 in
Snow Depth Not available.
UV 2 out of 12
Pollen 5.70 out of 12
Air Quality Not available.
Flu Activity Not available.
METAR KCRX 261255Z AUTO 15003KT 8SM CLR 21/19 A3005 RMK AO2

More Conditions Fewer Conditions

Pressure 30.05 in
Visibility 8.0 miles
Clouds Clear
Dew Point 66 °F
Humidity 88%
Rainfall 0.00 in
Snow Depth Not available.
UV 2 out of 12
Pollen 5.70 out of 12
Air Quality Not available.
Flu Activity Not available.
METAR KCRX 261255Z AUTO 15003KT 8SM CLR 21/19 A3005 RMK AO2

More Conditions Fewer Conditions

10-Day Weather Forecast

Almanac

Astronomy

Jul. 26, 2014 Rise Set
Actual Time 6:01 AM CDT 8:03 PM CDT
Civil Twilight 5:33 AM CDT 8:31 PM CDT
Nautical Twilight 4:58 AM CDT 9:05 PM CDT
Astronomical Twilight 4:21 AM CDT 9:42 PM CDT
Moon 5:51 AM CDT 7:41 PM CDT
Length of Visible Light 14h 58m
Length of Day
14h 01m
Tomorrow will be 1m 29s shorter.
Waning Crescent, 0% of the Moon is Illuminated
Today
Waning Crescent
Jul 26
New
Aug 3
First Quarter
Aug 10
Full
Aug 17
Last Quarter

Today's Extremes

State Highs State Lows

Community

WunderPhotos

Upload Photos

1,737,565 photos uploaded!

Nearby

Snow Depth

Station Depth Elevation
No new snow has been reported.

Earthquake Activity

City Distance Mag. Time & Date
No recent earthquake activity has been reported nearby.
Minimum magnitude displayed is 2.5.

Coastal Water Temperatures

Place Temperature
No Stations Reporting

Nearby Weather Stations

Station Location Temp. Dew Point Humidity Wind Precip. Elev Updated Type
Northhaven, New Albany, MS 69.3 °F 69 °F 98% SW  at  0.0 mph - / hr 364 ft 8:13 AM CDT Normal

Show More Stations Show Fewer Stations